Toronto, Canada
Current Conditions -  °F | °C
As of 1:00 PM on Friday 21 Nov 2014 (Local Time) from CYYZ Reporting Station
Broken Clouds Broken Clouds  
Wind Chill: 17°   Ceiling: 6000
Heat Index: 28°   Visibility: 15mi
Dew Point: 14°   Wind: 14mph
Humidity: 55%   Direction: 290°WNW
Pressure: 30.37"   Gusts: NA
Location:  43.65°N, 79.39°W
Report Text: CYYZ 211800Z 29012KT 15SM SCT038 BKN060 M02/M10 A3037 RMK CU3SC2 SLP293
Loading
Personal Weather Stations






























Interactive Weather Map New forecast layout! Learn more

10-Day Weather Forecast

Advertisements
Track Severe Weather on mobile